Baraga, MI

1:04 AM EST on February 07, 2016 (GMT -0500)
APRSWXNET | | Change Station
CLOSE
Current Station
Personal Weather Station
Location: L'Anse, MI
Elevation: 702 ft
Nearby Weather Stations

Elev 702 ft 46.84 °N, 88.38 °W | Updated 14 minutes ago

Snow
Snow
33 °F
Feels Like 33 °F
N
2
Wind Variable Wind from SSW
Gusts 9.0 mph

Today
High -- | Low -- °F
--% Chance of Precip.
Yesterday
High -- | Low -- °F
Precip. -- in
Pressure 29.75 in
Visibility 2.0 miles
Clouds Mostly Cloudy 400 ft
Overcast 800 ft
Windchill 33 °F
Dew Point 30 °F
Humidity 88%
Rainfall in
Snow Depth Not available.
8:10 AM 6:05 PM
Waning Crescent, 2% visible
METAR KCMX 070553Z AUTO 13005KT 2SM -SN BR BKN004 OVC008 M02/M03 A2971 RMK AO2 SLP075 P0003 60005 T10171028 11011 21022 56030 TSNO
Pressure 29.75 in
Visibility 2.0 miles
Clouds Mostly Cloudy 400 ft
Overcast 800 ft
Windchill 33 °F
Dew Point 30 °F
Humidity 88%
Rainfall in
Snow Depth Not available.
8:10 AM 6:05 PM
Waning Crescent, 2% visible
METAR KCMX 070553Z AUTO 13005KT 2SM -SN BR BKN004 OVC008 M02/M03 A2971 RMK AO2 SLP075 P0003 60005 T10171028 11011 21022 56030 TSNO

10-Day Weather Forecast

Almanac

Astronomy

Feb. 07, 2016 Rise Set
Actual Time
Civil Twilight
Nautical Twilight
Astronomical Twilight
Moon
Length of Visible Light
Length of Day
Tomorrow will be .
, % of the Moon is Illuminated

Today's Extremes

State Highs State Lows

Community

WunderPhotos

Upload Photos

1,891,172 photos uploaded!

WunderBlog® & News

Nearby

Air Quality

  Air Quality AQ Index Pollutant
Not available.

Snow Depth

Station Depth Elevation

Earthquake Activity

City Distance Mag. Time & Date
Minimum magnitude displayed is 2.5.

Coastal Water Temperatures

Place Temperature

Stations

Nearby Weather Stations

Station Location Temp. Windchill Dew Point Humidity Wind Precip. Elev Updated Type
                   

Watches & Warnings

There are currently no watches in effect.